Time;durP1;ratioP1;P1;durP2;ratioP2;P2;SDS_P1;SDS_P2;PMS_P1;PMS_P2;Temp;Humidity;BMP_temperature;BMP_pressure;BME280_temperature;BME280_humidity;BME280_pressure;Samples;Min_cycle;Max_cycle;Signal;HPM_P1;HPM_P2
2021/12/21 00:01:42;;;;;;;1.83;1.73;;;;;;;2.06;59.43;100092.75;5237366;27;33615;-90
2021/12/21 00:04:11;;;;;;;2.33;2.12;;;;;;;1.82;59.46;100081.84;5238038;27;33531;-90
2021/12/21 00:06:43;;;;;;;2.10;1.90;;;;;;;1.91;59.47;100090.63;5220091;27;32484;-89
2021/12/21 00:09:17;;;;;;;3.28;2.08;;;;;;;1.94;59.60;100097.53;5221473;27;34753;-89
2021/12/21 00:11:48;;;;;;;3.40;2.00;;;;;;;1.88;59.03;100098.19;5218318;27;32799;-89
2021/12/21 00:14:24;;;;;;;;;;;;;;;1.57;59.36;100083.69;5220104;27;32735;-89
2021/12/21 00:19:50;;;;;;;2.80;2.33;;;;;;;1.56;58.94;100098.97;5219257;27;34865;-89
2021/12/21 00:22:49;;;;;;;2.58;2.37;;;;;;;1.22;59.21;100103.94;5219001;27;34530;-90
2021/12/21 00:25:18;;;;;;;1.90;1.80;;;;;;;1.13;59.40;100090.00;5239000;27;33997;-92
2021/12/21 00:27:51;;;;;;;1.85;1.75;;;;;;;1.05;59.33;100103.41;5221348;27;34746;-88
2021/12/21 00:30:22;;;;;;;2.28;1.90;;;;;;;0.69;60.13;100108.19;5223703;27;34900;-89
2021/12/21 00:32:53;;;;;;;1.90;1.80;;;;;;;1.01;59.68;100106.66;5236193;27;33078;-90
2021/12/21 00:35:23;;;;;;;2.00;1.90;;;;;;;1.02;59.46;100110.97;5222150;27;35364;-88
2021/12/21 00:37:52;;;;;;;2.72;1.98;;;;;;;1.28;58.87;100116.03;5221446;27;33457;-89
2021/12/21 00:40:24;;;;;;;2.00;1.90;;;;;;;1.14;59.55;100128.37;5235885;27;32780;-92
2021/12/21 00:42:53;;;;;;;1.90;1.80;;;;;;;1.05;59.25;100123.84;5224227;27;32635;-89
2021/12/21 00:45:22;;;;;;;2.10;1.90;;;;;;;1.29;58.74;100120.34;5239106;27;33486;-89
2021/12/21 00:47:55;;;;;;;1.90;1.80;;;;;;;1.22;58.98;100126.06;5238937;27;32732;-90
2021/12/21 00:50:24;;;;;;;1.83;1.73;;;;;;;1.17;58.90;100113.16;5219571;27;33875;-90
2021/12/21 00:52:54;;;;;;;1.98;1.83;;;;;;;1.25;58.66;100124.47;5215907;27;32810;-89
2021/12/21 00:55:26;;;;;;;1.60;1.50;;;;;;;1.39;58.38;100136.81;5239743;27;33050;-91
2021/12/21 00:57:55;;;;;;;;;;;;;;;1.43;57.95;100138.66;5222272;27;32656;-92
2021/12/21 01:00:32;;;;;;;2.15;2.03;;;;;;;1.23;58.51;100151.69;5235856;27;34186;-90
2021/12/21 01:03:07;;;;;;;2.37;2.25;;;;;;;1.07;59.20;100152.00;5238053;27;32923;-90
2021/12/21 01:05:46;;;;;;;2.58;1.90;;;;;;;1.03;59.19;100142.50;5220015;27;33458;-90
2021/12/21 01:08:20;;;;;;;2.22;2.03;;;;;;;0.80;59.54;100136.66;5235211;27;33363;-89
2021/12/21 01:11:06;;;;;;;1.98;1.80;;;;;;;0.56;60.68;100147.78;5240660;27;33172;-89
2021/12/21 01:13:46;;;;;;;2.12;1.98;;;;;;;0.68;60.33;100142.22;5241053;27;33318;-92
2021/12/21 01:16:25;;;;;;;2.45;2.22;;;;;;;0.90;60.07;100148.91;5221914;27;34254;-89
2021/12/21 01:19:05;;;;;;;2.25;2.05;;;;;;;0.87;59.81;100161.59;5219711;27;32287;-90
2021/12/21 01:21:40;;;;;;;2.28;2.03;;;;;;;0.99;59.59;100167.09;5239468;27;34002;-90
2021/12/21 01:24:26;;;;;;;2.45;2.00;;;;;;;1.15;59.14;100168.44;5217058;27;32553;-89
2021/12/21 01:27:13;;;;;;;1.80;1.70;;;;;;;1.19;58.17;100167.72;5241018;27;34697;-89
2021/12/21 01:29:52;;;;;;;3.00;2.28;;;;;;;1.06;58.61;100156.25;5235690;27;33604;-90
2021/12/21 01:32:37;;;;;;;2.30;2.10;;;;;;;0.72;59.31;100161.03;5239106;27;34778;-90
2021/12/21 01:35:13;;;;;;;2.40;2.20;;;;;;;0.88;58.66;100157.34;5220759;27;34978;-90
2021/12/21 01:37:54;;;;;;;2.17;1.98;;;;;;;0.75;59.14;100154.38;5237603;27;32465;-89
2021/12/21 01:40:34;;;;;;;2.92;2.17;;;;;;;0.58;59.39;100150.34;5215419;27;34217;-92
2021/12/21 01:51:36;;;;;;;2.30;2.10;;;;;;;0.46;59.98;100161.03;5147088;27;34391;-90
2021/12/21 01:54:05;;;;;;;1.90;1.80;;;;;;;0.33;60.00;100154.59;5165590;27;33187;-90
2021/12/21 01:56:34;;;;;;;1.90;1.80;;;;;;;0.36;59.79;100164.94;5156714;27;32734;-90
2021/12/21 01:59:05;;;;;;;2.10;1.90;;;;;;;0.75;58.33;100163.69;5146451;27;34444;-90
2021/12/21 02:01:35;;;;;;;3.30;2.25;;;;;;;0.45;58.35;100160.97;5164045;27;32299;-92
2021/12/21 02:04:08;;;;;;;2.22;2.03;;;;;;;0.48;57.49;100171.28;5145609;27;34112;-91
2021/12/21 02:06:39;;;;;;;2.03;1.92;;;;;;;0.68;57.13;100159.19;5169031;27;34074;-89
2021/12/21 02:09:08;;;;;;;2.55;2.35;;;;;;;0.89;56.44;100161.63;5169472;27;33669;-93
2021/12/21 02:11:37;;;;;;;2.15;2.00;;;;;;;0.69;56.69;100158.41;5174205;27;33798;-90
2021/12/21 02:14:09;;;;;;;1.92;1.83;;;;;;;0.52;56.16;100162.91;5153627;27;34145;-91
2021/12/21 02:16:50;;;;;;;2.00;1.90;;;;;;;0.58;55.74;100150.34;5147249;27;34879;-91
2021/12/21 02:19:24;;;;;;;1.80;1.70;;;;;;;0.89;54.91;100154.81;5165359;27;33737;-93
2021/12/21 02:22:18;;;;;;;2.03;1.90;;;;;;;0.75;54.59;100159.47;5171120;27;34341;-90
2021/12/21 02:24:56;;;;;;;2.75;2.55;;;;;;;0.72;54.09;100167.00;5151108;27;33692;-89
2021/12/21 02:27:28;;;;;;;2.10;2.00;;;;;;;0.52;53.99;100160.38;5183416;27;34985;-90
2021/12/21 02:29:57;;;;;;;1.90;1.80;;;;;;;0.76;52.95;100161.19;5237515;27;33801;-89
2021/12/21 02:32:26;;;;;;;1.90;1.80;;;;;;;0.75;53.22;100169.69;5229325;27;33623;-88
2021/12/21 02:34:55;;;;;;;1.95;1.77;;;;;;;1.03;51.89;100160.38;5229022;27;34582;-91
2021/12/21 02:37:25;;;;;;;4.60;2.35;;;;;;;0.90;52.01;100148.91;5210891;27;35049;-90
2021/12/21 02:39:54;;;;;;;1.87;1.77;;;;;;;0.73;51.78;100153.44;5213887;27;33070;-90
2021/12/21 02:42:27;;;;;;;1.92;1.80;;;;;;;0.76;51.64;100157.78;5221738;27;31850;-89
2021/12/21 02:44:58;;;;;;;1.98;1.87;;;;;;;0.90;51.62;100166.78;5210916;27;33884;-90
2021/12/21 02:47:27;;;;;;;2.08;1.95;;;;;;;1.08;50.84;100180.97;5231690;27;33146;-91
2021/12/21 02:49:56;;;;;;;1.80;1.70;;;;;;;1.10;50.86;100187.88;5214395;27;34074;-92
2021/12/21 02:52:27;;;;;;;1.95;1.85;;;;;;;1.16;51.36;100190.66;5213235;27;34963;-90
2021/12/21 02:54:56;;;;;;;1.80;1.70;;;;;;;1.06;51.41;100194.59;5221789;27;33827;-89
2021/12/21 02:57:25;;;;;;;2.08;1.98;;;;;;;1.09;51.82;100200.59;5236291;27;34353;-91
2021/12/21 02:59:54;;;;;;;2.00;1.90;;;;;;;0.82;52.30;100202.28;5233826;27;34980;-90
2021/12/21 03:02:24;;;;;;;2.12;2.03;;;;;;;0.92;52.42;100200.03;5231702;27;34363;-89
2021/12/21 03:04:53;;;;;;;2.08;1.87;;;;;;;0.74;52.99;100208.81;5213088;27;32212;-91
2021/12/21 03:07:52;;;;;;;1.80;1.70;;;;;;;1.09;52.23;100210.81;5215561;27;34270;-91
2021/12/21 03:10:25;;;;;;;2.00;1.90;;;;;;;1.18;51.60;100218.78;5217519;27;34107;-91
2021/12/21 03:15:37;;;;;;;1.70;1.60;;;;;;;0.92;52.38;100223.00;5205311;27;33910;-90
2021/12/21 03:18:06;;;;;;;1.98;1.87;;;;;;;0.90;52.02;100220.44;5231090;27;33723;-89
2021/12/21 03:20:35;;;;;;;2.10;2.00;;;;;;;1.14;50.91;100217.81;5211069;27;33538;-88
2021/12/21 03:23:04;;;;;;;2.00;1.90;;;;;;;0.91;50.74;100231.50;5210835;27;34294;-91
2021/12/21 03:25:34;;;;;;;1.90;1.80;;;;;;;0.90;51.28;100224.66;5216200;27;34577;-92
2021/12/21 03:28:03;;;;;;;1.95;1.85;;;;;;;1.18;50.08;100221.34;5229696;27;35046;-89
2021/12/21 03:30:32;;;;;;;2.10;1.90;;;;;;;1.28;49.93;100224.25;5229785;27;34089;-92
2021/12/21 03:33:01;;;;;;;2.28;1.77;;;;;;;1.01;50.53;100228.44;5209568;27;33517;-90
2021/12/21 03:35:30;;;;;;;1.70;1.60;;;;;;;0.96;50.11;100238.50;5213531;27;34549;-92
2021/12/21 03:38:00;;;;;;;2.00;1.90;;;;;;;0.76;50.40;100224.19;5213166;27;33932;-93
2021/12/21 03:40:32;;;;;;;3.58;2.03;;;;;;;0.89;50.23;100234.00;5234867;27;33867;-91
2021/12/21 03:43:05;;;;;;;2.17;1.85;;;;;;;1.10;49.75;100244.09;5210006;27;33581;-91
2021/12/21 03:45:38;;;;;;;1.92;1.83;;;;;;;0.75;50.00;100238.66;5209381;27;34731;-90
2021/12/21 03:48:12;;;;;;;1.70;1.60;;;;;;;1.18;49.65;100244.34;5228616;27;33780;-91
2021/12/21 03:50:41;;;;;;;1.95;1.85;;;;;;;0.80;50.32;100241.38;5211735;27;34788;-90
2021/12/21 03:53:10;;;;;;;1.80;1.70;;;;;;;0.76;50.44;100247.16;5234456;27;34302;-89
2021/12/21 03:55:39;;;;;;;1.80;1.70;;;;;;;0.62;50.80;100250.09;5210340;27;34437;-90
2021/12/21 03:58:09;;;;;;;1.95;1.85;;;;;;;0.56;50.68;100257.53;5211402;27;33499;-91
2021/12/21 04:00:38;;;;;;;2.00;1.90;;;;;;;0.64;50.35;100242.50;5210349;27;34078;-93
2021/12/21 04:03:08;;;;;;;1.90;1.70;;;;;;;0.82;50.14;100248.25;5210347;27;33382;-93
2021/12/21 04:05:37;;;;;;;1.75;1.65;;;;;;;0.80;50.37;100260.09;5211573;27;34048;-93
2021/12/21 04:08:06;;;;;;;1.80;1.70;;;;;;;0.81;50.45;100255.88;5216512;27;35082;-91
2021/12/21 04:10:36;;;;;;;2.35;2.15;;;;;;;0.91;49.90;100257.91;5209864;27;34473;-93
2021/12/21 04:13:09;;;;;;;2.10;2.00;;;;;;;0.81;50.10;100254.16;5210575;27;34914;-91
2021/12/21 04:15:43;;;;;;;2.92;2.47;;;;;;;0.44;50.84;100269.00;5209179;27;33774;-88
2021/12/21 04:18:12;;;;;;;2.03;1.80;;;;;;;0.70;50.64;100257.16;5210208;27;35039;-91
2021/12/21 04:20:41;;;;;;;1.98;1.83;;;;;;;0.52;51.21;100257.37;5215760;27;33972;-90
2021/12/21 04:23:10;;;;;;;2.83;2.10;;;;;;;0.94;49.92;100262.25;5226350;27;34308;-89
2021/12/21 04:25:39;;;;;;;1.80;1.70;;;;;;;0.44;51.13;100262.22;5229250;27;33522;-91
2021/12/21 04:28:08;;;;;;;2.03;1.80;;;;;;;0.53;50.95;100265.09;5228989;27;34413;-90
2021/12/21 04:30:37;;;;;;;2.08;1.90;;;;;;;0.84;50.18;100263.63;5209653;27;35243;-92
2021/12/21 04:33:11;;;;;;;1.85;1.75;;;;;;;0.63;50.42;100264.63;5215867;27;34639;-90
2021/12/21 04:35:41;;;;;;;2.00;1.90;;;;;;;1.10;49.35;100273.88;5215009;27;34580;-90
2021/12/21 04:38:20;;;;;;;1.90;1.80;;;;;;;1.03;49.05;100267.69;5228966;27;33971;-92
2021/12/21 04:40:56;;;;;;;3.60;2.55;;;;;;;1.13;48.65;100279.97;5227345;27;35433;-91
2021/12/21 04:43:26;;;;;;;1.87;1.77;;;;;;;1.04;49.27;100285.63;5209042;27;32674;-89
2021/12/21 04:45:55;;;;;;;2.28;2.08;;;;;;;1.01;49.57;100279.53;5209512;27;35457;-89
2021/12/21 04:48:25;;;;;;;1.80;1.70;;;;;;;0.89;49.50;100290.19;5216053;27;34554;-89
2021/12/21 04:50:54;;;;;;;2.00;1.90;;;;;;;0.80;49.98;100282.22;5229038;27;34233;-94
2021/12/21 04:53:23;;;;;;;2.80;2.10;;;;;;;0.75;49.88;100281.16;5228564;27;33943;-89
2021/12/21 04:55:53;;;;;;;2.00;1.90;;;;;;;0.38;50.20;100283.25;5209815;27;35309;-89
2021/12/21 04:58:21;;;;;;;2.20;2.00;;;;;;;0.18;50.81;100289.31;5210997;27;34144;-92
2021/12/21 05:00:51;;;;;;;1.90;1.80;;;;;;;0.56;49.84;100290.75;5210948;27;34795;-91
2021/12/21 05:03:20;;;;;;;2.17;2.00;;;;;;;0.29;50.05;100289.69;5235469;27;34424;-90
2021/12/21 05:05:50;;;;;;;1.83;1.73;;;;;;;0.35;50.06;100290.81;5229245;27;35013;-90
2021/12/21 05:08:23;;;;;;;1.80;1.70;;;;;;;0.61;49.17;100303.69;5210170;27;35524;-91
2021/12/21 05:10:56;;;;;;;1.77;1.67;;;;;;;0.66;49.25;100297.03;5211594;27;33883;-90
2021/12/21 05:13:27;;;;;;;1.70;1.60;;;;;;;0.53;49.16;100295.75;5212634;27;33590;-93
2021/12/21 05:15:57;;;;;;;2.10;2.00;;;;;;;0.65;48.62;100300.41;5215404;27;34588;-93
2021/12/21 05:18:27;;;;;;;2.05;1.95;;;;;;;0.83;48.10;100298.50;5210029;27;34290;-93
2021/12/21 05:20:57;;;;;;;4.00;2.12;;;;;;;0.83;47.76;100307.87;5229054;27;33850;-88
2021/12/21 05:23:26;;;;;;;1.90;1.80;;;;;;;0.86;47.11;100318.19;5228950;27;32922;-88
2021/12/21 05:25:55;;;;;;;2.00;1.90;;;;;;;0.96;46.67;100320.25;5228615;27;33412;-90
2021/12/21 05:28:27;;;;;;;1.90;1.80;;;;;;;0.84;46.28;100328.34;5214392;27;34728;-91
2021/12/21 05:30:56;;;;;;;2.00;1.90;;;;;;;0.92;46.02;100320.09;5234607;27;34604;-95
2021/12/21 05:33:27;;;;;;;1.73;1.62;;;;;;;0.83;46.06;100321.50;5230648;27;33970;-90
2021/12/21 05:35:57;;;;;;;2.12;2.03;;;;;;;0.68;45.97;100326.06;5209694;27;34408;-90
2021/12/21 05:38:31;;;;;;;1.90;1.80;;;;;;;1.01;45.10;100312.75;5228773;27;33443;-90
2021/12/21 05:41:03;;;;;;;1.90;1.80;;;;;;;0.99;45.18;100319.50;5229894;27;34596;-93
2021/12/21 05:43:32;;;;;;;1.90;1.80;;;;;;;1.11;44.69;100313.94;5236561;27;34020;-92
2021/12/21 05:46:01;;;;;;;1.80;1.70;;;;;;;1.14;46.08;100321.75;5211004;27;35328;-92
2021/12/21 05:48:30;;;;;;;1.90;1.80;;;;;;;1.33;45.85;100331.78;5229270;27;34001;-90
2021/12/21 05:51:00;;;;;;;1.80;1.70;;;;;;;1.39;45.41;100337.09;5228974;27;33796;-92
2021/12/21 05:53:29;;;;;;;2.17;2.08;;;;;;;0.94;46.48;100337.19;5228763;27;33573;-92
2021/12/21 05:55:58;;;;;;;2.33;2.15;;;;;;;0.98;46.50;100345.87;5215620;27;34103;-93
2021/12/21 05:58:27;;;;;;;2.50;1.92;;;;;;;0.77;47.12;100345.94;5214513;27;35162;-90
2021/12/21 06:00:56;;;;;;;2.53;1.80;;;;;;;0.61;47.64;100359.84;5228898;27;34529;-93
2021/12/21 06:03:25;;;;;;;1.87;1.77;;;;;;;0.51;48.17;100366.28;5209863;27;34996;-90
2021/12/21 06:05:58;;;;;;;1.80;1.70;;;;;;;0.73;47.50;100359.44;5209491;27;33780;-89
2021/12/21 06:08:29;;;;;;;2.08;1.98;;;;;;;0.29;48.34;100367.16;5209884;27;34140;-89
2021/12/21 06:11:00;;;;;;;3.00;2.72;;;;;;;0.41;48.84;100370.16;5215895;27;35309;-92
2021/12/21 06:27:40;;;;;;;2.10;2.00;;;;;;;0.28;51.85;100402.81;5073825;28;33437;-91
2021/12/21 06:30:11;;;;;;;3.65;2.03;;;;;;;0.12;52.53;100409.84;5100698;28;35371;-90
2021/12/21 06:32:40;;;;;;;;;;;;;;;0.14;52.48;100407.34;5107205;28;33837;-89
2021/12/21 06:35:11;;;;;;;1.90;1.80;;;;;;;-0.05;52.88;100406.63;5100739;28;33483;-91
2021/12/21 06:37:40;;;;;;;2.05;1.92;;;;;;;-0.05;53.07;100415.94;5100465;28;35143;-89
2021/12/21 06:40:11;;;;;;;2.50;2.30;;;;;;;-0.05;53.21;100413.37;5100828;28;33970;-94
2021/12/21 06:42:43;;;;;;;2.12;2.00;;;;;;;-0.18;53.32;100417.09;5100393;28;33766;-89
2021/12/21 06:45:25;;;;;;;2.22;2.03;;;;;;;-0.24;53.38;100414.31;5106849;28;32064;-92
2021/12/21 06:53:30;;;;;;;2.75;2.10;;;;;;;-0.19;53.03;100417.94;5160371;27;33894;-90
2021/12/21 06:56:01;;;;;;;2.40;2.20;;;;;;;-0.01;52.92;100418.66;5157102;27;34780;-91
2021/12/21 06:58:30;;;;;;;2.40;2.20;;;;;;;-0.17;53.61;100417.97;5190082;27;34967;-89
2021/12/21 07:01:01;;;;;;;2.40;2.20;;;;;;;0.02;53.06;100420.47;5207209;27;34287;-90
2021/12/21 07:03:31;;;;;;;2.40;2.20;;;;;;;0.11;53.15;100433.59;5191866;27;35101;-92
2021/12/21 07:06:03;;;;;;;4.22;2.42;;;;;;;0.28;52.52;100431.75;5187990;27;34283;-93
2021/12/21 07:08:43;;;;;;;2.40;2.20;;;;;;;0.44;52.00;100434.91;5188655;27;33661;-90
2021/12/21 07:11:19;;;;;;;2.22;2.10;;;;;;;0.09;53.12;100432.66;5188200;27;34313;-90
2021/12/21 07:19:23;;;;;;;2.83;2.53;;;;;;;0.66;51.55;100439.19;5191638;27;34522;-90
2021/12/21 07:21:52;;;;;;;4.30;2.30;;;;;;;0.55;51.96;100438.75;5215019;27;34483;-90
2021/12/21 07:24:21;;;;;;;2.28;2.08;;;;;;;0.55;51.68;100439.59;5207179;27;35607;-91
2021/12/21 07:26:52;;;;;;;4.35;2.35;;;;;;;0.50;52.16;100440.25;5189971;27;34214;-91
2021/12/21 07:29:21;;;;;;;2.37;2.22;;;;;;;0.50;52.07;100437.69;5190056;27;34787;-92
2021/12/21 07:31:50;;;;;;;4.37;2.35;;;;;;;0.48;52.43;100439.31;5209258;27;33611;-94
2021/12/21 07:34:19;;;;;;;2.87;2.25;;;;;;;0.51;52.30;100440.31;5214541;27;33891;-89
2021/12/21 07:36:48;;;;;;;2.10;1.90;;;;;;;0.65;51.31;100440.84;5191420;27;34450;-93
2021/12/21 07:39:19;;;;;;;2.08;1.98;;;;;;;0.75;51.36;100445.50;5210433;27;34363;-90
2021/12/21 07:42:07;;;;;;;2.00;1.90;;;;;;;0.51;51.89;100458.19;5209602;27;34364;-89
2021/12/21 07:44:35;;;;;;;;;;;;;;;0.46;52.23;100452.03;5209692;27;34240;-93
2021/12/21 07:47:05;;;;;;;2.15;1.95;;;;;;;0.59;52.01;100461.91;5189826;27;34822;-93
2021/12/21 07:49:34;;;;;;;2.20;2.00;;;;;;;0.64;52.10;100451.88;5196612;27;34690;-93
2021/12/21 07:52:07;;;;;;;2.30;2.10;;;;;;;0.62;52.50;100450.94;5189694;27;34577;-90
2021/12/21 07:54:36;;;;;;;4.25;2.20;;;;;;;0.76;52.17;100452.34;5189890;27;34592;-90
2021/12/21 07:57:07;;;;;;;2.67;2.12;;;;;;;0.81;52.30;100455.09;5189967;27;33777;-93
2021/12/21 07:59:37;;;;;;;2.58;2.00;;;;;;;0.66;52.36;100454.50;5189637;27;33770;-90
2021/12/21 08:02:12;;;;;;;3.25;2.03;;;;;;;0.68;52.64;100452.84;5209468;27;34839;-89
2021/12/21 08:04:42;;;;;;;2.40;2.20;;;;;;;0.57;53.04;100452.44;5196805;27;34275;-90
2021/12/21 08:07:16;;;;;;;5.60;2.30;;;;;;;0.88;52.24;100456.19;5208858;27;34074;-92
2021/12/21 08:09:48;;;;;;;2.35;2.05;;;;;;;0.86;52.24;100448.47;5190536;27;34924;-92
2021/12/21 08:12:20;;;;;;;2.28;2.08;;;;;;;0.88;52.00;100456.19;5189685;27;34905;-90
2021/12/21 08:14:50;;;;;;;3.15;1.98;;;;;;;0.93;51.75;100452.12;5217387;27;34737;-92
2021/12/21 08:17:21;;;;;;;2.75;2.10;;;;;;;0.81;52.40;100452.53;5237095;27;34433;-89
2021/12/21 08:19:50;;;;;;;2.10;2.00;;;;;;;0.88;52.39;100461.31;5217754;27;33851;-92
2021/12/21 08:22:19;;;;;;;2.90;2.17;;;;;;;1.10;51.24;100463.84;5210356;27;33802;-87
2021/12/21 08:24:48;;;;;;;3.50;2.10;;;;;;;0.80;52.16;100464.44;5210238;27;34178;-86
2021/12/21 08:27:18;;;;;;;2.10;1.90;;;;;;;0.82;51.79;100457.69;5230318;27;34450;-93
2021/12/21 08:29:47;;;;;;;2.10;2.00;;;;;;;0.92;51.47;100455.47;5209827;27;35068;-90
2021/12/21 08:32:16;;;;;;;2.67;2.20;;;;;;;0.66;52.14;100455.38;5215621;27;33905;-93
2021/12/21 08:34:45;;;;;;;2.20;1.98;;;;;;;0.80;52.30;100461.00;5227532;27;34820;-92
2021/12/21 08:37:14;;;;;;;1.90;1.80;;;;;;;1.11;51.64;100467.25;5209980;27;34437;-90
2021/12/21 08:39:43;;;;;;;2.00;1.90;;;;;;;1.00;51.43;100470.28;5209400;27;34226;-89
2021/12/21 08:42:14;;;;;;;2.15;1.98;;;;;;;1.04;51.30;100469.59;5210234;27;34686;-92
2021/12/21 08:44:46;;;;;;;;;;;;;;;1.03;51.12;100472.09;5216418;27;32920;-92
2021/12/21 08:47:16;;;;;;;2.17;2.08;;;;;;;1.18;51.23;100472.66;5209398;27;34501;-92
2021/12/21 08:49:46;;;;;;;2.15;1.98;;;;;;;1.07;51.45;100473.97;5226155;27;33867;-90
2021/12/21 08:52:15;;;;;;;2.10;1.90;;;;;;;1.01;51.71;100476.25;5207214;27;34369;-92
2021/12/21 08:54:45;;;;;;;2.00;1.90;;;;;;;1.06;52.10;100482.41;5225006;27;33834;-93
2021/12/21 08:57:14;;;;;;;1.83;1.73;;;;;;;1.10;52.26;100479.19;5210411;27;34453;-91
2021/12/21 08:59:44;;;;;;;2.10;2.00;;;;;;;1.30;52.12;100481.59;5215116;27;34517;-95
2021/12/21 09:02:13;;;;;;;3.17;2.08;;;;;;;1.13;52.75;100484.37;5209382;27;34044;-94
2021/12/21 09:04:43;;;;;;;2.40;2.20;;;;;;;1.10;53.31;100479.19;5226941;27;35507;-90
2021/12/21 09:07:12;;;;;;;4.30;2.30;;;;;;;1.10;54.10;100480.87;5209755;27;33328;-92
2021/12/21 09:09:44;;;;;;;4.10;2.45;;;;;;;1.28;54.14;100484.97;5209261;27;34839;-93
2021/12/21 09:12:12;;;;;;;2.40;2.20;;;;;;;1.17;54.75;100488.81;5215526;27;34373;-93
2021/12/21 09:14:41;;;;;;;2.97;2.53;;;;;;;1.03;55.57;100490.84;5209634;27;34739;-93
2021/12/21 09:17:12;;;;;;;2.08;1.90;;;;;;;1.00;55.79;100493.28;5209981;27;34078;-94
2021/12/21 09:19:40;;;;;;;3.83;2.30;;;;;;;1.17;56.07;100501.59;5227628;27;35262;-91
2021/12/21 09:22:09;;;;;;;2.55;2.30;;;;;;;1.35;55.90;100492.84;5228728;27;34529;-91
2021/12/21 09:24:38;;;;;;;2.53;2.22;;;;;;;1.43;55.49;100492.34;5235016;27;34274;-93
2021/12/21 09:27:11;;;;;;;2.12;1.98;;;;;;;1.37;56.06;100497.22;5210081;27;33866;-91
2021/12/21 09:29:41;;;;;;;2.12;2.00;;;;;;;1.32;56.13;100478.28;5210302;27;35903;-90
2021/12/21 09:32:13;;;;;;;3.03;2.22;;;;;;;1.49;55.79;100478.91;5209344;27;34992;-90
2021/12/21 09:34:44;;;;;;;1.95;1.83;;;;;;;1.59;55.94;100477.53;5209818;27;34841;-93
2021/12/21 09:37:17;;;;;;;;;;;;;;;1.67;55.66;100471.88;5210780;27;33425;-93
2021/12/21 09:39:47;;;;;;;2.30;2.10;;;;;;;1.90;55.22;100476.91;5216530;27;35183;-93
2021/12/21 09:42:17;;;;;;;;;;;;;;;1.63;56.16;100480.25;5211368;27;34435;-91
2021/12/21 09:44:46;;;;;;;2.90;2.22;;;;;;;1.87;55.40;100476.81;5210807;27;35553;-93
2021/12/21 09:47:15;;;;;;;3.92;2.40;;;;;;;2.16;54.73;100475.25;5229485;27;33692;-92
2021/12/21 09:49:48;;;;;;;2.60;2.03;;;;;;;1.97;54.92;100478.00;5211936;27;33384;-90
2021/12/21 09:52:19;;;;;;;2.20;2.00;;;;;;;2.02;54.69;100476.47;5217490;27;33840;-91
2021/12/21 09:54:48;;;;;;;1.92;1.83;;;;;;;1.95;55.06;100470.28;5228017;27;34320;-93
2021/12/21 09:57:18;;;;;;;2.22;1.90;;;;;;;2.21;54.25;100466.03;5229274;27;33390;-90
2021/12/21 09:59:51;;;;;;;2.22;2.05;;;;;;;2.23;53.74;100459.28;5229881;27;34878;-92
2021/12/21 10:02:21;;;;;;;3.35;2.25;;;;;;;2.36;53.85;100455.41;5208847;27;34820;-93
2021/12/21 10:04:54;;;;;;;2.05;1.75;;;;;;;2.48;53.56;100455.81;5227957;27;34258;-91
2021/12/21 10:07:24;;;;;;;2.15;1.95;;;;;;;2.53;53.38;100459.38;5235940;27;34235;-95
2021/12/21 10:10:04;;;;;;;2.10;1.90;;;;;;;2.30;54.28;100460.34;5211072;27;35235;-92
2021/12/21 10:12:35;;;;;;;3.17;2.08;;;;;;;2.61;53.98;100453.63;5210156;27;33832;-94
2021/12/21 10:15:07;;;;;;;3.35;2.17;;;;;;;2.69;53.40;100458.19;5226935;27;35087;-93
2021/12/21 10:17:37;;;;;;;2.47;2.28;;;;;;;2.72;53.57;100453.13;5228885;27;33832;-91
2021/12/21 10:20:10;;;;;;;2.20;2.00;;;;;;;2.80;53.17;100448.25;5210036;27;35780;-93
2021/12/21 10:22:40;;;;;;;1.90;1.80;;;;;;;2.92;52.31;100446.06;5215602;27;33970;-92
2021/12/21 10:25:10;;;;;;;1.80;1.70;;;;;;;2.94;52.73;100446.09;5207432;27;35539;-95
2021/12/21 10:27:44;;;;;;;3.00;1.90;;;;;;;3.15;52.12;100440.75;5232631;27;33249;-90
2021/12/21 10:30:13;;;;;;;3.50;2.33;;;;;;;2.93;52.33;100432.41;5229047;27;34656;-92
2021/12/21 10:32:51;;;;;;;1.92;1.80;;;;;;;2.87;52.20;100439.06;5232929;27;33764;-90
2021/12/21 10:35:31;;;;;;;1.60;1.50;;;;;;;2.90;51.81;100432.34;5215306;27;34594;-91
2021/12/21 10:38:03;;;;;;;3.12;1.90;;;;;;;2.80;52.14;100432.88;5239313;27;33809;-92
2021/12/21 10:40:33;;;;;;;3.50;2.25;;;;;;;2.96;51.89;100429.94;5229888;27;33837;-90
2021/12/21 10:43:04;;;;;;;1.80;1.70;;;;;;;2.89;51.58;100429.72;5232218;27;33580;-90
2021/12/21 10:45:35;;;;;;;2.12;1.92;;;;;;;2.83;52.04;100424.41;5230618;27;32850;-90
2021/12/21 10:48:06;;;;;;;1.70;1.60;;;;;;;3.06;50.86;100419.97;5234650;27;34460;-92
2021/12/21 10:50:37;;;;;;;2.33;2.00;;;;;;;3.00;51.13;100418.09;5219413;27;34166;-90
2021/12/21 10:53:08;;;;;;;2.45;2.00;;;;;;;3.13;51.01;100412.47;5216594;27;36136;-89
2021/12/21 10:55:39;;;;;;;2.00;1.90;;;;;;;2.73;52.93;100416.47;5216003;27;33239;-90
2021/12/21 10:58:15;;;;;;;2.20;2.00;;;;;;;2.70;52.02;100408.66;5211199;27;33541;-95
2021/12/21 11:00:50;;;;;;;3.12;2.00;;;;;;;2.56;53.20;100410.81;5211447;27;34526;-93
2021/12/21 11:03:31;;;;;;;1.98;1.77;;;;;;;2.72;51.91;100419.81;5229592;27;34142;-90
2021/12/21 11:06:14;;;;;;;1.83;1.73;;;;;;;2.80;51.81;100414.94;5216318;27;35095;-95
2021/12/21 11:08:44;;;;;;;2.10;1.77;;;;;;;3.01;51.38;100404.44;5235919;27;33357;-91
2021/12/21 11:11:25;;;;;;;2.20;1.77;;;;;;;3.27;50.86;100412.88;5211311;27;34029;-89
2021/12/21 11:14:02;;;;;;;1.80;1.70;;;;;;;2.93;51.66;100395.69;5228922;27;33523;-94
2021/12/21 11:16:39;;;;;;;2.35;2.00;;;;;;;3.14;51.24;100401.44;5209754;27;33067;-93
2021/12/21 11:19:09;;;;;;;2.03;1.80;;;;;;;2.97;51.74;100389.78;5231791;27;33940;-91
2021/12/21 11:21:42;;;;;;;3.10;1.90;;;;;;;2.97;51.88;100385.56;5211948;27;34223;-89
2021/12/21 11:24:13;;;;;;;1.90;1.80;;;;;;;3.08;51.78;100388.41;5220262;27;32040;-93
2021/12/21 11:26:44;;;;;;;2.05;1.75;;;;;;;3.31;51.29;100376.25;5211922;27;35047;-91
2021/12/21 11:29:17;;;;;;;2.12;1.90;;;;;;;3.13;51.90;100380.84;5225820;27;33146;-94
2021/12/21 11:31:49;;;;;;;1.83;1.73;;;;;;;3.29;50.88;100377.03;5208556;27;35110;-91
2021/12/21 11:34:20;;;;;;;;;;;;;;;3.45;50.91;100376.59;5228914;27;34354;-93
2021/12/21 11:39:49;;;;;;;2.08;1.90;;;;;;;3.39;49.49;100379.00;5235201;27;35082;-89
2021/12/21 11:42:36;;;;;;;8.95;2.58;;;;;;;3.14;49.53;100380.91;5232093;27;34752;-90
2021/12/21 11:45:11;;;;;;;2.40;2.20;;;;;;;3.08;50.46;100379.87;5204513;27;35091;-88
2021/12/21 11:48:16;;;;;;;2.70;2.00;;;;;;;3.19;50.35;100388.72;5188725;27;34237;-91
2021/12/21 11:50:47;;;;;;;2.65;1.90;;;;;;;3.10;50.25;100379.06;5205767;27;33787;-89
2021/12/21 11:53:18;;;;;;;2.42;1.90;;;;;;;2.97;50.70;100377.88;5223596;27;33654;-93
2021/12/21 11:55:51;;;;;;;1.75;1.65;;;;;;;2.88;51.48;100372.47;5228852;27;33572;-91
2021/12/21 11:58:26;;;;;;;5.32;2.37;;;;;;;3.14;51.34;100374.88;5234850;27;34350;-90
2021/12/21 12:00:57;;;;;;;3.67;2.70;;;;;;;3.02;51.78;100379.69;5205670;27;34621;-89
2021/12/21 12:03:30;;;;;;;2.53;2.17;;;;;;;3.16;51.10;100373.25;5206500;27;33208;-90
2021/12/21 12:06:01;;;;;;;3.05;2.12;;;;;;;3.45;49.24;100365.47;5228782;27;34669;-92
2021/12/21 12:08:42;;;;;;;3.97;2.42;;;;;;;3.13;49.81;100373.16;5209526;27;34638;-89
2021/12/21 12:11:22;;;;;;;4.32;2.20;;;;;;;3.04;50.62;100370.34;5229194;27;34267;-91
2021/12/21 12:14:03;;;;;;;2.22;2.03;;;;;;;3.25;50.68;100370.06;5234406;27;33947;-89
2021/12/21 12:16:42;;;;;;;3.47;2.25;;;;;;;3.08;51.15;100373.03;5233155;27;33935;-89
2021/12/21 12:19:13;;;;;;;1.90;1.80;;;;;;;2.90;51.35;100370.84;5209939;27;34086;-93
2021/12/21 12:21:54;;;;;;;2.67;2.25;;;;;;;2.84;51.86;100360.38;5230413;27;34312;-90
2021/12/21 12:24:27;;;;;;;2.05;1.85;;;;;;;3.26;51.24;100354.72;5209627;27;34973;-92
2021/12/21 12:27:01;;;;;;;3.00;1.90;;;;;;;3.48;50.56;100355.28;5229266;27;33877;-91
2021/12/21 12:29:44;;;;;;;2.22;1.98;;;;;;;3.10;51.09;100358.56;5210026;27;35311;-92
2021/12/21 12:32:14;;;;;;;2.53;2.00;;;;;;;3.12;50.79;100359.50;5216273;27;33633;-92
2021/12/21 12:34:43;;;;;;;3.40;1.80;;;;;;;3.15;50.15;100364.69;5229390;27;34343;-91
2021/12/21 12:37:18;;;;;;;2.75;2.10;;;;;;;3.11;49.97;100369.69;5228801;27;33694;-91
2021/12/21 12:39:50;;;;;;;1.98;1.77;;;;;;;3.04;49.57;100367.78;5228215;27;34015;-90